createdAt,value
2022-12-09T00:00:44.840Z,90
2022-12-09T00:01:52.203Z,87
2022-12-09T00:02:59.659Z,96
2022-12-09T00:04:07.198Z,94
2022-12-09T00:05:14.122Z,94
2022-12-09T00:06:21.371Z,91
2022-12-09T00:07:29.038Z,84
2022-12-09T00:08:36.407Z,88
2022-12-09T00:09:43.551Z,84
2022-12-09T00:10:51.486Z,86
2022-12-09T00:11:58.724Z,92
2022-12-09T00:13:05.971Z,83
2022-12-09T00:14:13.094Z,84
2022-12-09T00:15:20.296Z,90
2022-12-09T00:16:27.609Z,91
2022-12-09T00:17:34.885Z,93
2022-12-09T00:18:42.280Z,94
2022-12-09T00:19:49.369Z,94
2022-12-09T00:20:57.171Z,95
2022-12-09T00:22:04.543Z,96
2022-12-09T00:23:11.662Z,96
2022-12-09T00:24:19.058Z,92
2022-12-09T00:25:26.658Z,90
2022-12-09T00:26:33.740Z,94
2022-12-09T00:27:41.083Z,93
2022-12-09T00:28:48.429Z,89
2022-12-09T00:29:55.495Z,95
2022-12-09T00:31:02.999Z,98
2022-12-09T00:32:10.435Z,98
2022-12-09T00:33:17.830Z,101
2022-12-09T00:34:24.741Z,92
2022-12-09T00:35:31.862Z,100
2022-12-09T00:36:38.997Z,95
2022-12-09T00:37:46.629Z,96
2022-12-09T00:38:53.696Z,97
2022-12-09T00:40:01.038Z,90
2022-12-09T00:41:08.499Z,93
2022-12-09T00:42:15.901Z,97
2022-12-09T00:43:22.735Z,93
2022-12-09T00:44:30.219Z,91
2022-12-09T00:45:37.588Z,94
2022-12-09T00:46:45.304Z,81
2022-12-09T00:47:52.379Z,81
2022-12-09T00:48:59.683Z,80
2022-12-09T00:50:07.262Z,73
2022-12-09T00:51:14.466Z,79
2022-12-09T00:52:22.316Z,75
2022-12-09T00:53:30.127Z,69
2022-12-09T00:54:37.669Z,70
2022-12-09T00:55:45.539Z,64
2022-12-09T00:56:52.695Z,75
2022-12-09T00:57:59.853Z,67
2022-12-09T00:59:07.135Z,64
2022-12-09T01:00:14.356Z,59
2022-12-09T01:01:22.626Z,67
2022-12-09T01:02:30.102Z,61
2022-12-09T01:03:37.534Z,56
2022-12-09T01:04:44.871Z,58
2022-12-09T01:05:52.059Z,64
2022-12-09T01:06:58.919Z,60
2022-12-09T01:08:06.513Z,54
2022-12-09T01:09:17.530Z,49
2022-12-09T01:10:25.335Z,57
2022-12-09T01:11:32.892Z,51
2022-12-09T01:12:40.369Z,56
2022-12-09T01:13:47.838Z,50
2022-12-09T01:14:55.125Z,49
2022-12-09T01:16:02.261Z,50
2022-12-09T01:17:09.979Z,50
2022-12-09T01:18:17.027Z,46
2022-12-09T01:19:25.432Z,51
2022-12-09T01:20:34.135Z,52
2022-12-09T01:21:41.388Z,41
2022-12-09T01:22:48.485Z,48
2022-12-09T01:23:55.923Z,55
2022-12-09T01:25:03.178Z,49
2022-12-09T01:26:11.327Z,43
2022-12-09T01:27:19.100Z,49
2022-12-09T01:28:25.952Z,57
2022-12-09T01:29:33.337Z,49
2022-12-09T01:30:41.222Z,54
2022-12-09T01:31:48.643Z,57
2022-12-09T01:32:56.292Z,48
2022-12-09T01:34:03.998Z,46
2022-12-09T01:35:11.792Z,51
2022-12-09T01:36:19.747Z,46
2022-12-09T01:37:27.074Z,50
2022-12-09T01:38:33.867Z,53
2022-12-09T01:39:41.452Z,37
2022-12-09T01:40:49.471Z,46
2022-12-09T01:41:57.141Z,41
2022-12-09T01:43:07.497Z,49
2022-12-09T01:44:23.671Z,45
2022-12-09T01:45:31.263Z,45
2022-12-09T01:46:41.973Z,53
2022-12-09T01:47:49.076Z,45
2022-12-09T01:48:56.839Z,59
2022-12-09T01:50:07.986Z,48
2022-12-09T01:51:14.548Z,59
2022-12-09T01:52:22.014Z,50
2022-12-09T01:53:29.595Z,50
2022-12-09T01:54:36.795Z,48
2022-12-09T01:55:44.432Z,54
2022-12-09T01:56:52.433Z,52
2022-12-09T01:57:59.572Z,42
2022-12-09T01:59:11.175Z,54
2022-12-09T02:00:18.584Z,50
2022-12-09T02:01:41.239Z,50
2022-12-09T02:02:48.849Z,45
2022-12-09T02:03:56.386Z,45
2022-12-09T02:05:03.558Z,46
2022-12-09T02:06:10.906Z,45
2022-12-09T02:07:18.170Z,38
2022-12-09T02:08:25.777Z,46
2022-12-09T02:09:33.432Z,49
2022-12-09T02:10:41.222Z,41
2022-12-09T02:11:54.130Z,45
2022-12-09T02:13:11.882Z,37
2022-12-09T02:14:24.360Z,40
2022-12-09T02:15:31.668Z,44
2022-12-09T02:16:41.974Z,30
2022-12-09T02:17:48.896Z,47
2022-12-09T02:18:58.959Z,44
2022-12-09T02:20:16.892Z,42
2022-12-09T02:21:27.216Z,34
2022-12-09T02:22:39.767Z,36
2022-12-09T02:23:50.449Z,38
2022-12-09T02:25:03.433Z,26
2022-12-09T02:26:15.929Z,29
2022-12-09T02:27:31.792Z,35
2022-12-09T02:28:42.123Z,25
2022-12-09T02:29:57.326Z,30
2022-12-09T02:31:09.906Z,39
2022-12-09T02:32:28.698Z,33
2022-12-09T02:33:38.460Z,27
2022-12-09T02:34:55.921Z,31
2022-12-09T02:36:08.730Z,38
2022-12-09T02:37:16.359Z,28
2022-12-09T02:38:24.576Z,26
2022-12-09T02:39:32.385Z,29
2022-12-09T02:40:39.702Z,32
2022-12-09T02:41:57.202Z,25
2022-12-09T02:43:04.881Z,28
2022-12-09T02:44:12.570Z,29
2022-12-09T02:45:21.039Z,25
2022-12-09T02:46:28.666Z,33
2022-12-09T02:47:36.178Z,25
2022-12-09T02:48:43.738Z,25
2022-12-09T02:49:51.232Z,30
2022-12-09T02:51:04.358Z,26
2022-12-09T02:52:11.801Z,31
2022-12-09T02:53:19.165Z,37
2022-12-09T02:54:26.897Z,33
2022-12-09T02:55:35.405Z,28
2022-12-09T02:56:43.074Z,35
2022-12-09T02:57:51.187Z,35
2022-12-09T02:58:58.554Z,39
2022-12-09T03:00:06.724Z,39
2022-12-09T03:01:14.379Z,38
2022-12-09T03:02:30.455Z,37
2022-12-09T03:03:38.030Z,41
2022-12-09T03:04:45.438Z,29
2022-12-09T03:05:52.635Z,37
2022-12-09T03:07:02.778Z,40
2022-12-09T03:08:15.783Z,42
2022-12-09T03:09:28.085Z,49
2022-12-09T03:10:36.106Z,41
2022-12-09T03:11:43.233Z,51
2022-12-09T03:12:50.246Z,52
2022-12-09T03:14:03.509Z,50
2022-12-09T03:15:16.072Z,41
2022-12-09T03:16:23.494Z,41
2022-12-09T03:17:36.030Z,38
2022-12-09T03:18:43.495Z,44
2022-12-09T03:19:51.013Z,46
2022-12-09T03:20:58.061Z,51
2022-12-09T03:22:05.522Z,53
2022-12-09T03:23:15.556Z,40
2022-12-09T03:24:22.596Z,39
2022-12-09T03:25:33.265Z,45
2022-12-09T03:26:43.698Z,40
2022-12-09T03:27:50.773Z,42
2022-12-09T03:28:58.549Z,44
2022-12-09T03:30:07.159Z,36
2022-12-09T03:31:13.879Z,41
2022-12-09T03:32:20.940Z,44
2022-12-09T03:33:29.489Z,55
2022-12-09T03:34:36.864Z,56
2022-12-09T03:35:44.118Z,57
2022-12-09T03:36:54.415Z,51
2022-12-09T03:38:01.413Z,63
2022-12-09T03:39:08.627Z,57
2022-12-09T03:40:19.025Z,53
2022-12-09T03:41:26.363Z,59
2022-12-09T03:42:34.033Z,50
2022-12-09T03:43:41.275Z,59
2022-12-09T03:44:49.457Z,55
2022-12-09T03:46:02.423Z,62
2022-12-09T03:47:09.798Z,59
2022-12-09T03:48:17.159Z,65
2022-12-09T03:49:25.378Z,59
2022-12-09T03:50:32.688Z,59
2022-12-09T03:51:40.066Z,65
2022-12-09T03:52:51.049Z,62
2022-12-09T03:53:58.177Z,65
2022-12-09T03:55:05.947Z,65
2022-12-09T03:56:13.667Z,60
2022-12-09T03:57:24.488Z,65
2022-12-09T03:58:31.670Z,61
2022-12-09T03:59:38.962Z,60
2022-12-09T04:00:46.240Z,58
2022-12-09T04:01:53.663Z,59
2022-12-09T04:03:00.846Z,65
2022-12-09T04:04:07.922Z,63
2022-12-09T04:05:16.428Z,61
2022-12-09T04:06:23.813Z,70
2022-12-09T04:07:30.990Z,65
2022-12-09T04:08:38.978Z,67
2022-12-09T04:09:45.720Z,65
2022-12-09T04:10:52.864Z,69
2022-12-09T04:12:00.379Z,68
2022-12-09T04:13:08.000Z,69
2022-12-09T04:14:15.908Z,68
2022-12-09T04:15:22.698Z,76
2022-12-09T04:16:30.959Z,68
2022-12-09T04:17:38.003Z,63
2022-12-09T04:18:45.736Z,64
2022-12-09T04:19:52.904Z,67
2022-12-09T04:21:00.245Z,69
2022-12-09T04:22:12.772Z,72
2022-12-09T04:23:20.340Z,66
2022-12-09T04:24:27.502Z,65
2022-12-09T04:25:34.768Z,62
2022-12-09T04:26:42.468Z,68
2022-12-09T04:27:49.543Z,68
2022-12-09T04:28:56.873Z,72
2022-12-09T04:30:04.188Z,72
2022-12-09T04:31:11.933Z,68
2022-12-09T04:32:18.919Z,71
2022-12-09T04:33:26.241Z,73
2022-12-09T04:34:34.773Z,76
2022-12-09T04:35:41.691Z,75
2022-12-09T04:36:49.345Z,81
2022-12-09T04:37:56.132Z,74
2022-12-09T04:39:03.172Z,75
2022-12-09T04:40:11.072Z,80
2022-12-09T04:41:18.147Z,90
2022-12-09T04:42:25.462Z,73
2022-12-09T04:43:32.493Z,66
2022-12-09T04:44:39.929Z,85
2022-12-09T04:45:46.832Z,84
2022-12-09T04:46:54.159Z,77
2022-12-09T04:48:01.337Z,82
2022-12-09T04:49:08.291Z,89
2022-12-09T04:50:15.790Z,82
2022-12-09T04:51:22.888Z,85
2022-12-09T04:52:30.141Z,80
2022-12-09T04:53:36.968Z,80
2022-12-09T04:54:44.304Z,80
2022-12-09T04:55:53.379Z,86
2022-12-09T04:57:03.301Z,80
2022-12-09T04:58:10.918Z,80
2022-12-09T04:59:18.948Z,89
2022-12-09T05:00:27.458Z,80
2022-12-09T05:01:35.470Z,88
2022-12-09T05:02:42.477Z,88
2022-12-09T05:03:50.180Z,86
2022-12-09T05:04:57.605Z,90
2022-12-09T05:06:05.963Z,89
2022-12-09T05:07:14.609Z,88
2022-12-09T05:08:23.690Z,100
2022-12-09T05:09:30.172Z,91
2022-12-09T05:10:37.615Z,88
2022-12-09T05:11:44.808Z,94
2022-12-09T05:12:52.823Z,91
2022-12-09T05:14:03.009Z,94
2022-12-09T05:15:10.357Z,90
2022-12-09T05:16:17.921Z,91
2022-12-09T05:17:25.466Z,92
2022-12-09T05:18:32.848Z,92
2022-12-09T05:19:40.461Z,93
2022-12-09T05:20:47.861Z,88
2022-12-09T05:21:55.775Z,91
2022-12-09T05:23:07.594Z,87
2022-12-09T05:24:10.666Z,84
2022-12-09T05:25:18.064Z,98
2022-12-09T05:26:25.646Z,93
2022-12-09T05:27:32.919Z,94
2022-12-09T05:28:40.464Z,93
2022-12-09T05:29:48.217Z,90
2022-12-09T05:30:55.524Z,86
2022-12-09T05:32:02.943Z,90
2022-12-09T05:33:10.013Z,88
2022-12-09T05:34:17.703Z,88
2022-12-09T05:35:25.775Z,89
2022-12-09T05:36:32.937Z,93
2022-12-09T05:37:40.643Z,95
2022-12-09T05:38:48.272Z,93
2022-12-09T05:39:55.873Z,97
2022-12-09T05:41:03.399Z,94
2022-12-09T05:42:10.548Z,96
2022-12-09T05:43:17.912Z,97
2022-12-09T05:44:25.638Z,92
2022-12-09T05:45:32.898Z,93
2022-12-09T05:46:40.304Z,87
2022-12-09T05:47:47.757Z,81
2022-12-09T05:48:54.876Z,82
2022-12-09T05:50:07.513Z,81
2022-12-09T05:51:09.314Z,85
2022-12-09T05:52:19.494Z,77
2022-12-09T05:53:26.641Z,77
2022-12-09T05:54:33.969Z,79
2022-12-09T05:55:41.336Z,89
2022-12-09T05:56:49.098Z,86
2022-12-09T05:57:56.222Z,92
2022-12-09T05:59:03.207Z,96
2022-12-09T06:00:10.779Z,112
2022-12-09T06:01:18.648Z,100
2022-12-09T06:02:27.057Z,105
2022-12-09T06:03:34.922Z,107
2022-12-09T06:04:42.015Z,100
2022-12-09T06:05:49.616Z,113
2022-12-09T06:06:56.994Z,106
2022-12-09T06:08:06.967Z,114
2022-12-09T06:09:12.689Z,113
2022-12-09T06:10:19.805Z,112
2022-12-09T06:11:27.022Z,103
2022-12-09T06:12:33.965Z,117
2022-12-09T06:13:41.637Z,112
2022-12-09T06:14:49.322Z,116
2022-12-09T06:15:56.175Z,117
2022-12-09T06:17:06.117Z,107
2022-12-09T06:18:13.875Z,110
2022-12-09T06:19:21.009Z,117
2022-12-09T06:20:27.852Z,110
2022-12-09T06:21:35.280Z,99
2022-12-09T06:22:45.167Z,102
2022-12-09T06:23:52.220Z,105
2022-12-09T06:25:00.262Z,103
2022-12-09T06:26:07.595Z,112
2022-12-09T06:27:20.677Z,109
2022-12-09T06:28:27.432Z,115
2022-12-09T06:29:34.871Z,115
2022-12-09T06:30:42.094Z,97
2022-12-09T06:31:49.653Z,105
2022-12-09T06:32:57.069Z,102
2022-12-09T06:34:04.073Z,99
2022-12-09T06:35:11.412Z,93
2022-12-09T06:36:18.524Z,94
2022-12-09T06:37:26.348Z,100
2022-12-09T06:38:33.499Z,97
2022-12-09T06:39:41.303Z,93
2022-12-09T06:40:49.776Z,94
2022-12-09T06:41:57.206Z,92
2022-12-09T06:43:04.959Z,86
2022-12-09T06:44:13.548Z,87
2022-12-09T06:45:19.358Z,88
2022-12-09T06:46:27.172Z,88
2022-12-09T06:47:33.952Z,86
2022-12-09T06:48:41.028Z,85
2022-12-09T06:49:48.155Z,80
2022-12-09T06:50:56.271Z,85
2022-12-09T06:52:03.340Z,80
2022-12-09T06:53:10.369Z,82
2022-12-09T06:54:18.034Z,83
2022-12-09T06:55:24.878Z,74
2022-12-09T06:56:32.622Z,76
2022-12-09T06:57:40.062Z,74
2022-12-09T06:58:47.388Z,74
2022-12-09T06:59:54.457Z,76
2022-12-09T07:01:01.436Z,67
2022-12-09T07:02:16.986Z,71
2022-12-09T07:03:24.451Z,68
2022-12-09T07:04:32.281Z,65
2022-12-09T07:05:40.251Z,64
2022-12-09T07:06:48.024Z,65
2022-12-09T07:07:56.241Z,68
2022-12-09T07:09:03.932Z,64
2022-12-09T07:10:14.055Z,68
2022-12-09T07:11:21.726Z,69
2022-12-09T07:12:28.512Z,68
2022-12-09T07:13:35.704Z,68
2022-12-09T07:14:43.105Z,69
2022-12-09T07:15:51.518Z,65
2022-12-09T07:16:58.467Z,62
2022-12-09T07:18:06.903Z,65
2022-12-09T07:19:14.047Z,67
2022-12-09T07:20:21.582Z,66
2022-12-09T07:21:29.770Z,64
2022-12-09T07:22:37.093Z,67
2022-12-09T07:23:44.109Z,65
2022-12-09T07:24:51.600Z,68
2022-12-09T07:25:58.701Z,66
2022-12-09T07:27:09.124Z,69
2022-12-09T07:28:14.014Z,62
2022-12-09T07:29:21.010Z,66
2022-12-09T07:30:28.172Z,67
2022-12-09T07:31:35.498Z,62
2022-12-09T07:32:43.756Z,63
2022-12-09T07:33:51.005Z,61
2022-12-09T07:34:58.092Z,67
2022-12-09T07:36:05.753Z,60
2022-12-09T07:37:12.756Z,58
2022-12-09T07:38:20.041Z,59
2022-12-09T07:39:26.995Z,58
2022-12-09T07:40:34.732Z,61
2022-12-09T07:41:42.082Z,56
2022-12-09T07:42:48.965Z,56
2022-12-09T07:43:55.866Z,56
2022-12-09T07:45:03.164Z,49
2022-12-09T07:46:12.061Z,56
2022-12-09T07:47:19.062Z,58
2022-12-09T07:48:26.179Z,56
2022-12-09T07:49:33.342Z,54
2022-12-09T07:50:40.281Z,56
2022-12-09T07:51:48.460Z,58
2022-12-09T07:52:55.520Z,54
2022-12-09T07:54:02.658Z,56
2022-12-09T07:55:10.595Z,56
2022-12-09T07:56:16.965Z,55
2022-12-09T07:57:24.422Z,59
2022-12-09T07:58:31.177Z,59
2022-12-09T07:59:38.558Z,59
2022-12-09T08:00:45.345Z,47
2022-12-09T08:01:52.426Z,57
2022-12-09T08:03:00.002Z,54
2022-12-09T08:04:07.206Z,51
2022-12-09T08:05:14.736Z,57
2022-12-09T08:06:21.528Z,56
2022-12-09T08:07:28.515Z,55
2022-12-09T08:08:35.798Z,50
2022-12-09T08:09:43.023Z,47
2022-12-09T08:10:50.127Z,45
2022-12-09T08:11:57.576Z,48
2022-12-09T08:13:04.397Z,58
2022-12-09T08:14:12.944Z,49
2022-12-09T08:15:19.457Z,49
2022-12-09T08:16:26.605Z,52
2022-12-09T08:17:33.657Z,56
2022-12-09T08:18:41.248Z,55
2022-12-09T08:19:47.713Z,57
2022-12-09T08:20:54.867Z,55
2022-12-09T08:22:02.331Z,51
2022-12-09T08:23:09.768Z,56
2022-12-09T08:24:17.162Z,49
2022-12-09T08:25:24.321Z,45
2022-12-09T08:26:31.485Z,54
2022-12-09T08:27:39.058Z,51
2022-12-09T08:28:46.270Z,54
2022-12-09T08:29:53.619Z,50
2022-12-09T08:31:01.981Z,46
2022-12-09T08:32:14.261Z,42
2022-12-09T08:33:22.254Z,44
2022-12-09T08:34:30.050Z,44
2022-12-09T08:35:37.467Z,44
2022-12-09T08:36:45.121Z,42
2022-12-09T08:37:52.207Z,42
2022-12-09T08:38:58.940Z,50
2022-12-09T08:40:07.033Z,48
2022-12-09T08:41:14.155Z,46
2022-12-09T08:42:24.263Z,67
2022-12-09T08:43:31.416Z,64
2022-12-09T08:44:38.332Z,64
2022-12-09T08:45:46.091Z,62
2022-12-09T08:46:53.110Z,63
2022-12-09T08:48:00.418Z,60
2022-12-09T08:49:07.538Z,58
2022-12-09T08:50:15.020Z,56
2022-12-09T08:51:21.597Z,72
2022-12-09T08:52:28.990Z,67
2022-12-09T08:53:36.416Z,74
2022-12-09T08:54:43.712Z,67
2022-12-09T08:55:51.554Z,67
2022-12-09T08:56:59.127Z,70
2022-12-09T08:58:05.824Z,69
2022-12-09T08:59:13.113Z,73
2022-12-09T09:00:20.358Z,72
2022-12-09T09:01:28.460Z,68
2022-12-09T09:02:38.314Z,62
2022-12-09T09:03:45.943Z,68
2022-12-09T09:04:52.820Z,63
2022-12-09T09:06:05.417Z,66
2022-12-09T09:07:12.209Z,60
2022-12-09T09:08:19.041Z,63
2022-12-09T09:09:26.112Z,61
2022-12-09T09:10:33.336Z,66
2022-12-09T09:11:40.412Z,66
2022-12-09T09:12:47.047Z,63
2022-12-09T09:13:54.575Z,58
2022-12-09T09:15:01.357Z,65
2022-12-09T09:16:11.565Z,59
2022-12-09T09:17:18.790Z,59
2022-12-09T09:18:25.993Z,60
2022-12-09T09:19:33.419Z,62
2022-12-09T09:20:41.493Z,56
2022-12-09T09:21:48.148Z,54
2022-12-09T09:23:01.282Z,64
2022-12-09T09:24:02.510Z,60
2022-12-09T09:25:12.856Z,60
2022-12-09T09:26:19.343Z,54
2022-12-09T09:27:26.316Z,56
2022-12-09T09:28:33.425Z,55
2022-12-09T09:29:40.392Z,51
2022-12-09T09:30:47.260Z,49
2022-12-09T09:31:54.759Z,47
2022-12-09T09:33:02.571Z,50
2022-12-09T09:34:09.203Z,51
2022-12-09T09:35:16.536Z,45
2022-12-09T09:36:23.622Z,56
2022-12-09T09:37:31.624Z,47
2022-12-09T09:38:39.559Z,42
2022-12-09T09:39:46.624Z,40
2022-12-09T09:40:54.018Z,39
2022-12-09T09:42:06.161Z,33
2022-12-09T09:43:08.323Z,33
2022-12-09T09:44:16.192Z,36
2022-12-09T09:45:31.989Z,25
2022-12-09T09:46:38.846Z,33
2022-12-09T09:47:46.251Z,26
2022-12-09T09:49:01.487Z,33
2022-12-09T09:50:08.528Z,27
2022-12-09T09:51:25.528Z,34
2022-12-09T09:52:33.010Z,37
2022-12-09T09:53:39.761Z,30
2022-12-09T09:54:47.235Z,39
2022-12-09T09:55:55.055Z,39
2022-12-09T09:57:10.385Z,35
2022-12-09T09:58:25.495Z,25
2022-12-09T09:59:40.490Z,39
2022-12-09T10:00:55.782Z,36
2022-12-09T10:02:08.057Z,25
2022-12-09T10:03:15.193Z,25
2022-12-09T10:04:31.076Z,26
2022-12-09T10:05:46.890Z,29
2022-12-09T10:06:54.167Z,28
2022-12-09T10:08:12.413Z,28
2022-12-09T10:09:29.182Z,29
2022-12-09T10:10:36.497Z,25
2022-12-09T10:11:50.384Z,34
2022-12-09T10:13:07.182Z,32
2022-12-09T10:14:09.158Z,25
2022-12-09T10:15:21.573Z,26
2022-12-09T10:16:31.777Z,30
2022-12-09T10:17:44.331Z,28
2022-12-09T10:18:51.636Z,29
2022-12-09T10:20:03.761Z,27
2022-12-09T10:21:10.460Z,25
2022-12-09T10:22:21.209Z,30
2022-12-09T10:23:28.485Z,31
2022-12-09T10:24:40.280Z,33
2022-12-09T10:25:43.069Z,26
2022-12-09T10:26:58.534Z,30
2022-12-09T10:28:05.802Z,26
2022-12-09T10:29:22.020Z,27
2022-12-09T10:30:40.128Z,27
2022-12-09T10:31:42.038Z,26
2022-12-09T10:32:48.640Z,28
2022-12-09T10:33:56.403Z,29
2022-12-09T10:35:03.491Z,29
2022-12-09T10:36:18.053Z,27
2022-12-09T10:37:27.589Z,33
2022-12-09T10:38:34.901Z,35
2022-12-09T10:39:41.984Z,32
2022-12-09T10:40:49.011Z,34
2022-12-09T10:42:03.872Z,33
2022-12-09T10:43:16.037Z,33
2022-12-09T10:44:28.318Z,31
2022-12-09T10:46:08.308Z,32
2022-12-09T10:46:48.532Z,38
2022-12-09T10:48:06.502Z,41
2022-12-09T10:49:24.026Z,39
2022-12-09T10:50:32.519Z,39
2022-12-09T10:51:39.730Z,36
2022-12-09T10:52:46.229Z,39
2022-12-09T10:53:54.938Z,36
2022-12-09T10:55:09.251Z,37
2022-12-09T10:56:24.353Z,35
2022-12-09T10:57:36.862Z,35
2022-12-09T10:58:44.068Z,40
2022-12-09T10:59:50.925Z,38
2022-12-09T11:01:12.669Z,33
2022-12-09T11:02:22.955Z,33
2022-12-09T11:03:29.824Z,35
2022-12-09T11:04:39.660Z,33
2022-12-09T11:05:46.845Z,31
2022-12-09T11:06:58.943Z,28
2022-12-09T11:08:10.960Z,28
2022-12-09T11:09:18.177Z,29
2022-12-09T11:10:25.684Z,34
2022-12-09T11:11:32.414Z,31
2022-12-09T11:12:42.447Z,36
2022-12-09T11:13:49.426Z,31
2022-12-09T11:14:57.052Z,32
2022-12-09T11:16:09.893Z,26
2022-12-09T11:17:16.705Z,35
2022-12-09T11:18:31.422Z,27
2022-12-09T11:19:47.009Z,25
2022-12-09T11:21:01.989Z,35
2022-12-09T11:22:09.377Z,25
2022-12-09T11:23:24.811Z,26
2022-12-09T11:24:31.928Z,27
2022-12-09T11:25:39.203Z,32
2022-12-09T11:26:56.217Z,36
2022-12-09T11:28:03.433Z,30
2022-12-09T11:29:18.918Z,29
2022-12-09T11:30:27.404Z,29
2022-12-09T11:31:39.389Z,40
2022-12-09T11:32:47.161Z,47
2022-12-09T11:33:57.128Z,52
2022-12-09T11:35:07.725Z,48
2022-12-09T11:36:14.627Z,46
2022-12-09T11:37:21.625Z,49
2022-12-09T11:38:28.822Z,47
2022-12-09T11:39:41.505Z,49
2022-12-09T11:40:48.648Z,52
2022-12-09T11:42:07.349Z,46
2022-12-09T11:43:23.813Z,49
2022-12-09T11:44:39.413Z,50
2022-12-09T11:45:51.872Z,54
2022-12-09T11:46:59.130Z,52
2022-12-09T11:48:36.153Z,53
2022-12-09T11:49:33.049Z,54
2022-12-09T11:50:40.181Z,62
2022-12-09T11:51:47.372Z,54
2022-12-09T11:53:04.685Z,49
2022-12-09T11:54:14.306Z,51
2022-12-09T11:55:24.061Z,57
2022-12-09T11:56:31.071Z,49
2022-12-09T11:57:39.286Z,51
2022-12-09T11:58:51.408Z,47
2022-12-09T12:00:03.930Z,39
2022-12-09T12:01:11.727Z,39
2022-12-09T12:02:19.453Z,37
2022-12-09T12:03:31.708Z,40
2022-12-09T12:04:41.716Z,40
2022-12-09T12:05:54.249Z,39
2022-12-09T12:07:01.825Z,39
2022-12-09T12:08:08.930Z,37
2022-12-09T12:09:26.279Z,43
2022-12-09T12:10:33.580Z,37
2022-12-09T12:11:41.651Z,38
2022-12-09T12:12:48.540Z,34
2022-12-09T12:14:05.935Z,35
2022-12-09T12:15:20.812Z,34
2022-12-09T12:16:37.768Z,31
2022-12-09T12:17:50.820Z,34
2022-12-09T12:18:57.795Z,28
2022-12-09T12:20:12.672Z,26
2022-12-09T12:21:19.779Z,29
2022-12-09T12:22:34.844Z,30
2022-12-09T12:23:47.213Z,35
2022-12-09T12:24:57.686Z,27
2022-12-09T12:26:12.764Z,30
2022-12-09T12:27:20.742Z,33
2022-12-09T12:28:33.180Z,36
2022-12-09T12:29:40.287Z,36
2022-12-09T12:30:58.304Z,34
2022-12-09T12:32:15.949Z,33
2022-12-09T12:34:39.559Z,33
2022-12-09T12:35:48.240Z,35
2022-12-09T12:37:00.720Z,37
2022-12-09T12:38:16.019Z,35
2022-12-09T12:39:31.803Z,36
2022-12-09T12:40:46.992Z,38
2022-12-09T12:41:54.145Z,37
2022-12-09T12:43:01.215Z,39
2022-12-09T12:44:18.593Z,40
2022-12-09T12:45:41.063Z,42
2022-12-09T12:47:01.257Z,45
2022-12-09T12:48:08.598Z,35
2022-12-09T12:49:15.552Z,43
2022-12-09T12:50:28.212Z,38
2022-12-09T12:51:35.036Z,40
2022-12-09T12:52:56.813Z,48
2022-12-09T12:54:04.527Z,39
2022-12-09T12:55:21.808Z,40
2022-12-09T12:56:34.160Z,42
2022-12-09T12:57:44.145Z,37
2022-12-09T12:58:53.884Z,49
2022-12-09T13:00:11.132Z,40
2022-12-09T13:01:18.388Z,40
2022-12-09T13:02:30.681Z,38
2022-12-09T13:03:48.342Z,46
2022-12-09T13:05:00.579Z,43
2022-12-09T13:06:07.627Z,54
2022-12-09T13:07:14.739Z,46
2022-12-09T13:08:21.933Z,42
2022-12-09T13:09:39.189Z,42
2022-12-09T13:10:46.419Z,42
2022-12-09T13:11:56.502Z,44
2022-12-09T13:13:11.712Z,44
2022-12-09T13:14:18.860Z,45
2022-12-09T13:15:27.783Z,44
2022-12-09T13:16:41.698Z,45
2022-12-09T13:17:48.860Z,48
2022-12-09T13:18:55.994Z,48
2022-12-09T13:20:11.179Z,49
2022-12-09T13:21:22.923Z,45
2022-12-09T13:22:30.319Z,49
2022-12-09T13:23:38.059Z,57
2022-12-09T13:24:58.436Z,47
2022-12-09T13:26:05.331Z,49
2022-12-09T13:27:22.882Z,55
2022-12-09T13:28:39.935Z,55
2022-12-09T13:29:52.048Z,57
2022-12-09T13:31:06.913Z,63
2022-12-09T13:32:13.947Z,53
2022-12-09T13:33:23.791Z,54
2022-12-09T13:34:36.006Z,54
2022-12-09T13:35:43.918Z,56
2022-12-09T13:36:58.907Z,59
2022-12-09T13:38:06.003Z,56
2022-12-09T13:39:23.492Z,56
2022-12-09T13:40:40.703Z,58
2022-12-09T13:41:47.848Z,61
2022-12-09T13:42:59.954Z,58
2022-12-09T13:44:07.211Z,54
2022-12-09T13:45:14.185Z,56
2022-12-09T13:46:24.108Z,57
2022-12-09T13:47:31.028Z,72
2022-12-09T13:48:38.222Z,60
2022-12-09T13:49:45.321Z,60
2022-12-09T13:50:57.652Z,63
2022-12-09T13:52:04.900Z,59
2022-12-09T13:53:11.844Z,57
2022-12-09T13:54:24.015Z,66
2022-12-09T13:55:32.861Z,59
2022-12-09T13:56:39.915Z,56
2022-12-09T13:57:47.149Z,64
2022-12-09T13:58:57.466Z,63
2022-12-09T14:00:10.471Z,62
2022-12-09T14:01:20.180Z,55
2022-12-09T14:02:28.377Z,64
2022-12-09T14:03:35.655Z,62
2022-12-09T14:04:52.670Z,62
2022-12-09T14:06:02.379Z,66
2022-12-09T14:07:15.495Z,65
2022-12-09T14:08:25.257Z,69
2022-12-09T14:09:35.586Z,71
2022-12-09T14:10:45.151Z,74
2022-12-09T14:11:52.264Z,71
2022-12-09T14:12:59.408Z,58
2022-12-09T14:14:07.256Z,63
2022-12-09T14:15:24.875Z,59
2022-12-09T14:16:32.208Z,52
2022-12-09T14:17:39.179Z,54
2022-12-09T14:18:46.365Z,59
2022-12-09T14:19:53.428Z,59
2022-12-09T14:21:01.644Z,58
2022-12-09T14:22:18.800Z,59
2022-12-09T14:23:25.939Z,57
2022-12-09T14:24:33.111Z,51
2022-12-09T14:25:40.275Z,48
2022-12-09T14:26:47.383Z,50
2022-12-09T14:27:57.105Z,46
2022-12-09T14:29:14.607Z,52
2022-12-09T14:30:33.234Z,50
2022-12-09T14:31:50.587Z,46
2022-12-09T14:33:03.411Z,48
2022-12-09T14:34:21.007Z,46
2022-12-09T14:35:34.199Z,45
2022-12-09T14:36:54.363Z,43
2022-12-09T14:38:06.679Z,48
2022-12-09T14:39:26.330Z,54
2022-12-09T14:40:26.352Z,57
2022-12-09T14:41:33.367Z,51
2022-12-09T14:42:48.612Z,59
2022-12-09T14:44:06.735Z,64
2022-12-09T14:45:18.681Z,65
2022-12-09T14:46:28.480Z,65
2022-12-09T14:47:38.040Z,65
2022-12-09T14:48:45.076Z,65
2022-12-09T14:49:58.444Z,66
2022-12-09T14:51:12.213Z,72
2022-12-09T14:52:29.547Z,74
2022-12-09T14:53:36.629Z,72
2022-12-09T14:54:43.817Z,71
2022-12-09T14:55:50.795Z,70
2022-12-09T14:56:57.963Z,71
2022-12-09T14:58:05.128Z,76
2022-12-09T14:59:12.282Z,70
2022-12-09T15:00:25.401Z,85
2022-12-09T15:01:37.685Z,69
2022-12-09T15:03:08.918Z,68
2022-12-09T15:03:57.270Z,71
2022-12-09T15:05:05.138Z,70
2022-12-09T15:06:11.873Z,70
2022-12-09T15:07:21.528Z,69
2022-12-09T15:08:31.737Z,66
2022-12-09T15:09:42.124Z,64
2022-12-09T15:10:52.112Z,70
2022-12-09T15:11:59.480Z,65
2022-12-09T15:13:07.345Z,79
2022-12-09T15:14:15.375Z,73
2022-12-09T15:15:28.883Z,80
2022-12-09T15:16:36.052Z,69
2022-12-09T15:17:43.040Z,71
2022-12-09T15:18:50.139Z,73
2022-12-09T15:20:01.203Z,75
2022-12-09T15:21:04.712Z,72
2022-12-09T15:22:11.837Z,79
2022-12-09T15:23:29.637Z,76
2022-12-09T15:24:49.523Z,79
2022-12-09T15:25:43.600Z,81
2022-12-09T15:26:55.741Z,79
2022-12-09T15:28:03.753Z,77
2022-12-09T15:29:19.568Z,74
2022-12-09T15:30:26.304Z,73
2022-12-09T15:31:33.554Z,80
2022-12-09T15:32:41.612Z,84
2022-12-09T15:33:48.879Z,89
2022-12-09T15:34:56.948Z,87
2022-12-09T15:36:14.211Z,86
2022-12-09T15:37:26.547Z,85
2022-12-09T15:38:37.443Z,94
2022-12-09T15:39:42.080Z,94
2022-12-09T15:40:53.733Z,95
2022-12-09T15:42:05.885Z,91
2022-12-09T15:43:16.388Z,93
2022-12-09T15:44:23.589Z,89
2022-12-09T15:45:30.620Z,96
2022-12-09T15:46:38.665Z,93
2022-12-09T15:47:45.635Z,91
2022-12-09T15:48:57.636Z,93
2022-12-09T15:50:07.804Z,96
2022-12-09T15:51:20.092Z,98
2022-12-09T15:52:27.196Z,103
2022-12-09T15:53:34.963Z,100
2022-12-09T15:54:41.900Z,97
2022-12-09T15:55:49.155Z,105
2022-12-09T15:57:01.752Z,97
2022-12-09T15:58:09.856Z,96
2022-12-09T15:59:17.213Z,100
2022-12-09T16:00:24.280Z,106
2022-12-09T16:01:31.371Z,98
2022-12-09T16:02:38.737Z,95
2022-12-09T16:03:45.657Z,96
2022-12-09T16:04:54.440Z,95
2022-12-09T16:06:02.280Z,96
2022-12-09T16:07:12.177Z,93
2022-12-09T16:08:19.379Z,99
2022-12-09T16:09:26.951Z,99
2022-12-09T16:10:34.105Z,101
2022-12-09T16:11:50.183Z,98
2022-12-09T16:12:57.917Z,101
2022-12-09T16:14:07.652Z,103
2022-12-09T16:15:14.826Z,98
2022-12-09T16:16:22.097Z,103
2022-12-09T16:17:29.181Z,103
2022-12-09T16:18:36.405Z,105
2022-12-09T16:19:52.306Z,101
2022-12-09T16:20:59.781Z,105
2022-12-09T16:22:17.117Z,114
2022-12-09T16:23:32.416Z,115